Time;durP1;ratioP1;P1;durP2;ratioP2;P2;SDS_P1;SDS_P2;PMS_P1;PMS_P2;Temp;Humidity;BMP_temperature;BMP_pressure;BME280_temperature;BME280_humidity;BME280_pressure;Samples;Min_cycle;Max_cycle;Signal;HPM_P1;HPM_P2
2022/08/26 00:00:51;;;;;;;1999.90;999.90;;;23.50;96.00;;;;;;6716144;88;20628;-77
2022/08/26 00:10:51;;;;;;;1999.90;999.90;;;23.70;95.70;;;;;;6714098;88;20230;-77
2022/08/26 00:20:52;;;;;;;1999.90;999.90;;;23.80;96.00;;;;;;6719803;88;20267;-77
2022/08/26 00:30:53;;;;;;;1999.90;999.90;;;23.70;97.80;;;;;;6715936;88;20181;-77
2022/08/26 00:40:55;;;;;;;1999.90;999.90;;;23.50;99.90;;;;;;6720693;88;20479;-78
2022/08/26 00:51:01;;;;;;;1999.90;999.90;;;23.50;99.90;;;;;;6720726;88;20214;-77
2022/08/26 01:01:02;;;;;;;1999.90;999.90;;;23.30;99.90;;;;;;6717189;88;20228;-77
2022/08/26 01:11:04;;;;;;;1999.90;999.90;;;23.30;99.90;;;;;;6714946;88;20254;-76
2022/08/26 01:21:17;;;;;;;1999.90;999.90;;;23.10;99.90;;;;;;6717856;88;20218;-77
2022/08/26 01:31:23;;;;;;;1999.90;999.90;;;23.10;99.90;;;;;;6714041;88;20807;-76
2022/08/26 01:41:25;;;;;;;1999.90;999.90;;;22.80;99.90;;;;;;6708887;88;20185;-78
2022/08/26 01:51:27;;;;;;;1999.90;999.90;;;22.70;99.90;;;;;;6718261;77;20190;-77
2022/08/26 02:01:27;;;;;;;1999.90;999.90;;;22.60;99.90;;;;;;6719337;88;20253;-75
2022/08/26 02:11:28;;;;;;;1999.90;999.90;;;22.40;99.90;;;;;;6719312;88;20185;-77
2022/08/26 02:21:29;;;;;;;1999.90;999.90;;;22.30;99.90;;;;;;6723983;88;20235;-75
2022/08/26 02:31:30;;;;;;;1999.90;999.90;;;22.10;99.90;;;;;;6711760;88;20234;-76
2022/08/26 02:41:31;;;;;;;1999.90;999.90;;;22.00;99.90;;;;;;6722628;88;20237;-77
2022/08/26 02:51:31;;;;;;;1999.90;999.90;;;21.90;99.90;;;;;;6724751;88;20713;-75
2022/08/26 03:01:34;;;;;;;1999.90;999.90;;;21.80;99.90;;;;;;6721848;88;20196;-75
2022/08/26 03:11:35;;;;;;;1999.90;999.90;;;21.50;99.90;;;;;;6718415;88;20182;-76
2022/08/26 03:21:37;;;;;;;1999.90;999.90;;;21.50;99.90;;;;;;6719908;88;20193;-77
2022/08/26 03:31:38;;;;;;;1999.90;999.90;;;21.40;99.90;;;;;;6719226;88;20783;-76
2022/08/26 03:41:39;;;;;;;1999.90;999.90;;;21.40;99.90;;;;;;6718330;88;20178;-77
2022/08/26 03:51:40;;;;;;;1999.90;999.90;;;21.50;99.90;;;;;;6714234;88;20253;-75
2022/08/26 04:01:40;;;;;;;1999.90;999.90;;;21.60;99.90;;;;;;6721059;88;20729;-75
2022/08/26 04:11:43;;;;;;;1999.90;999.90;;;21.60;99.90;;;;;;6719196;88;20384;-76
2022/08/26 04:21:45;;;;;;;1999.90;999.90;;;21.70;99.90;;;;;;6715573;88;20186;-75
2022/08/26 04:31:48;;;;;;;1999.90;999.90;;;21.60;99.90;;;;;;6723488;88;20226;-76
2022/08/26 04:41:49;;;;;;;1999.90;999.90;;;21.70;99.90;;;;;;6726087;88;20219;-76
2022/08/26 04:51:50;;;;;;;1999.90;999.90;;;21.70;99.90;;;;;;6716452;88;20197;-77
2022/08/26 05:01:58;;;;;;;1999.90;999.90;;;21.80;99.90;;;;;;6719818;88;20640;-77
2022/08/26 05:11:58;;;;;;;1999.90;999.90;;;21.80;99.90;;;;;;6717925;88;20181;-77
2022/08/26 05:21:59;;;;;;;1999.90;999.90;;;21.80;99.90;;;;;;6716961;88;20717;-76
2022/08/26 05:32:00;;;;;;;1999.90;999.90;;;21.80;99.90;;;;;;6710989;88;20197;-78
2022/08/26 05:42:02;;;;;;;1999.90;999.90;;;21.60;99.90;;;;;;6712884;88;20272;-78
2022/08/26 05:52:02;;;;;;;1999.90;999.90;;;21.80;99.90;;;;;;6728065;88;20190;-79
2022/08/26 06:02:03;;;;;;;1999.90;999.90;;;21.90;99.90;;;;;;6730129;88;20211;-81
2022/08/26 06:12:04;;;;;;;1999.90;999.90;;;21.90;99.90;;;;;;6730648;88;20215;-78
2022/08/26 06:25:36;;;;;;;1999.90;999.90;;;21.90;99.90;;;;;;6724401;88;20263;-79
2022/08/26 06:32:26;;;;;;;1999.90;999.90;;;22.00;99.90;;;;;;6723705;88;20182;-79
2022/08/26 06:42:26;;;;;;;1999.90;999.90;;;22.10;99.90;;;;;;6723778;88;20203;-79
2022/08/26 06:52:27;;;;;;;1999.90;999.90;;;22.10;99.90;;;;;;6725780;88;20207;-79
2022/08/26 07:02:27;;;;;;;1999.90;999.90;;;22.30;99.90;;;;;;6712522;88;20234;-79
2022/08/26 07:12:28;;;;;;;1999.90;999.90;;;22.50;99.90;;;;;;6710369;88;20205;-79
2022/08/26 07:22:29;;;;;;;1999.90;999.90;;;22.50;99.90;;;;;;6712693;88;20339;-79
2022/08/26 07:32:31;;;;;;;1999.90;999.90;;;22.50;99.90;;;;;;6713116;88;21005;-79
2022/08/26 07:42:33;;;;;;;1999.90;999.90;;;22.40;99.90;;;;;;6712269;88;20221;-80
2022/08/26 07:52:34;;;;;;;1999.90;999.90;;;22.60;99.90;;;;;;6712296;88;20202;-80
2022/08/26 08:02:35;;;;;;;1999.90;999.90;;;22.60;99.90;;;;;;6712534;88;20185;-79
2022/08/26 08:12:35;;;;;;;1999.90;999.90;;;22.60;99.90;;;;;;6711599;88;20290;-81
2022/08/26 08:22:36;;;;;;;1999.90;999.90;;;22.80;99.90;;;;;;6726052;88;20182;-80
2022/08/26 08:32:37;;;;;;;1999.90;999.90;;;23.00;99.90;;;;;;6723525;88;20274;-79
2022/08/26 08:42:42;;;;;;;1999.90;999.90;;;22.90;99.90;;;;;;6744991;88;20219;-81
2022/08/26 08:52:50;;;;;;;1999.90;999.90;;;22.90;99.90;;;;;;6747786;88;20217;-80
2022/08/26 09:03:23;;;;;;;1999.90;999.90;;;22.90;99.90;;;;;;6737409;88;20264;-80
2022/08/26 09:13:24;;;;;;;1999.90;999.90;;;23.00;99.90;;;;;;6714986;88;20231;-81
2022/08/26 09:23:25;;;;;;;1999.90;999.90;;;22.90;99.90;;;;;;6741349;88;20205;-79
2022/08/26 09:33:29;;;;;;;1999.90;999.90;;;23.00;99.90;;;;;;6725811;88;20220;-80
2022/08/26 09:43:30;;;;;;;1999.90;999.90;;;23.00;99.90;;;;;;6731297;88;20255;-80
2022/08/26 09:53:35;;;;;;;1999.90;999.90;;;23.20;99.90;;;;;;6718017;88;20327;-78
2022/08/26 10:03:37;;;;;;;1999.90;999.90;;;23.10;99.90;;;;;;6719328;88;20206;-77
2022/08/26 10:13:43;;;;;;;1999.90;999.90;;;22.90;99.90;;;;;;6713072;88;20194;-78
2022/08/26 10:23:49;;;;;;;1999.90;999.90;;;23.20;99.90;;;;;;6718981;88;20205;-78
2022/08/26 10:33:50;;;;;;;1999.90;999.90;;;23.20;99.90;;;;;;6720180;88;20260;-78
2022/08/26 10:43:56;;;;;;;1999.90;999.90;;;23.10;99.90;;;;;;6719480;88;20646;-78
2022/08/26 10:54:03;;;;;;;1999.90;999.90;;;23.10;99.90;;;;;;6721580;88;20236;-78
2022/08/26 11:04:20;;;;;;;1999.90;999.90;;;23.00;99.90;;;;;;6718438;88;20196;-76
2022/08/26 11:14:21;;;;;;;1999.90;999.90;;;22.90;99.90;;;;;;6721129;88;20996;-78
2022/08/26 11:24:42;;;;;;;1999.90;999.90;;;22.80;99.90;;;;;;6724802;88;20229;-79
2022/08/26 11:34:58;;;;;;;1999.90;999.90;;;23.00;99.90;;;;;;6730201;88;20189;-77
2022/08/26 11:45:00;;;;;;;1999.90;999.90;;;23.30;99.90;;;;;;6729852;88;20796;-78
2022/08/26 11:55:10;;;;;;;1999.90;999.90;;;23.80;99.90;;;;;;6730485;88;20176;-77
2022/08/26 12:05:16;;;;;;;1999.90;999.90;;;24.10;99.90;;;;;;6725216;88;20195;-78
2022/08/26 12:15:20;;;;;;;1999.90;999.90;;;24.20;99.90;;;;;;6726344;88;20641;-76
2022/08/26 12:25:23;;;;;;;1999.90;999.90;;;24.10;99.90;;;;;;6726515;88;20743;-76
2022/08/26 12:35:23;;;;;;;1999.90;999.90;;;24.00;99.90;;;;;;6716219;88;20185;-76
2022/08/26 12:45:28;;;;;;;1999.90;999.90;;;24.10;99.90;;;;;;6718484;88;20194;-76
2022/08/26 12:55:37;;;;;;;1999.90;999.90;;;24.10;99.90;;;;;;6721254;88;20189;-78
2022/08/26 13:05:38;;;;;;;1999.90;999.90;;;24.70;99.90;;;;;;6721449;88;20248;-75
2022/08/26 13:15:39;;;;;;;1999.90;999.90;;;24.70;99.90;;;;;;6713837;88;20186;-76
2022/08/26 13:25:40;;;;;;;1999.90;999.90;;;24.70;99.90;;;;;;6720762;88;20200;-76
2022/08/26 13:35:40;;;;;;;1999.90;999.90;;;25.10;99.90;;;;;;6722277;88;20228;-75
2022/08/26 13:45:41;;;;;;;1999.90;999.90;;;25.40;99.90;;;;;;6719643;88;20780;-78
2022/08/26 13:55:42;;;;;;;1999.90;999.90;;;24.90;99.90;;;;;;6724864;88;20736;-77
2022/08/26 14:05:42;;;;;;;1999.90;999.90;;;24.30;99.90;;;;;;6729674;88;20519;-75
2022/08/26 14:15:43;;;;;;;1999.90;999.90;;;24.40;99.90;;;;;;6722127;88;20912;-77
2022/08/26 14:25:44;;;;;;;1999.90;999.90;;;24.60;99.90;;;;;;6722507;88;20259;-79
2022/08/26 14:35:44;;;;;;;1999.90;999.90;;;24.80;99.90;;;;;;6723164;88;20502;-77
2022/08/26 14:45:45;;;;;;;1999.90;999.90;;;24.80;99.90;;;;;;6725909;88;20754;-77
2022/08/26 14:55:46;;;;;;;1999.90;999.90;;;24.90;99.90;;;;;;6724885;88;20180;-77
2022/08/26 15:05:47;;;;;;;1999.90;999.90;;;24.40;99.90;;;;;;6720583;88;20205;-76
2022/08/26 15:15:48;;;;;;;1999.90;999.90;;;24.10;99.90;;;;;;6717039;88;20342;-76
2022/08/26 15:25:48;;;;;;;1999.90;999.90;;;24.00;99.90;;;;;;6717249;88;20189;-77
2022/08/26 15:35:49;;;;;;;1999.90;999.90;;;24.20;99.90;;;;;;6719504;88;20259;-77
2022/08/26 15:45:49;;;;;;;1999.90;999.90;;;24.40;99.90;;;;;;6716775;88;20255;-76
2022/08/26 15:55:53;;;;;;;1999.90;999.90;;;24.60;99.90;;;;;;6716252;88;20361;-76
2022/08/26 16:05:54;;;;;;;1999.90;999.90;;;24.60;99.90;;;;;;6714795;88;20237;-76
2022/08/26 16:15:55;;;;;;;1999.90;999.90;;;24.20;99.90;;;;;;6716766;88;20201;-76
2022/08/26 16:25:56;;;;;;;1999.90;999.90;;;24.00;99.90;;;;;;6717309;88;20275;-76
2022/08/26 16:35:57;;;;;;;1999.90;999.90;;;24.00;99.90;;;;;;6716770;88;20352;-76
2022/08/26 16:45:57;;;;;;;1999.90;999.90;;;23.90;99.90;;;;;;6715779;88;20399;-76
2022/08/26 16:55:58;;;;;;;1999.90;999.90;;;23.70;99.90;;;;;;6720101;88;20260;-76
2022/08/26 17:05:59;;;;;;;1999.90;999.90;;;23.50;99.90;;;;;;6719007;88;20310;-76
2022/08/26 17:16:00;;;;;;;1999.90;999.90;;;23.00;99.90;;;;;;6724271;88;20538;-77
2022/08/26 17:26:00;;;;;;;1999.90;999.90;;;22.90;99.90;;;;;;6725860;88;20213;-77
2022/08/26 17:36:01;;;;;;;1999.90;999.90;;;22.80;99.90;;;;;;6722756;88;20204;-77
2022/08/26 17:46:04;;;;;;;1999.90;999.90;;;22.50;99.90;;;;;;6725344;88;20242;-75
2022/08/26 17:56:07;;;;;;;1999.90;999.90;;;22.40;99.90;;;;;;6724458;88;20210;-77
2022/08/26 18:06:10;;;;;;;1999.90;999.90;;;22.00;99.90;;;;;;6721998;88;20227;-77
2022/08/26 18:16:11;;;;;;;1999.90;999.90;;;21.90;99.90;;;;;;6726779;88;20787;-78
2022/08/26 18:26:28;;;;;;;1999.90;999.90;;;21.90;99.90;;;;;;6718027;88;20212;-76
2022/08/26 18:36:35;;;;;;;1999.90;999.90;;;22.00;99.90;;;;;;6724775;88;20593;-77
2022/08/26 18:46:36;;;;;;;1999.90;999.90;;;22.00;99.90;;;;;;6719207;88;20244;-79
2022/08/26 18:56:38;;;;;;;1999.90;999.90;;;21.90;99.90;;;;;;6718075;88;20201;-78
2022/08/26 19:06:39;;;;;;;1999.90;999.90;;;22.00;99.90;;;;;;6718219;88;20174;-75
2022/08/26 19:16:42;;;;;;;1999.90;999.90;;;22.00;99.90;;;;;;6714475;88;20214;-75
2022/08/26 19:26:52;;;;;;;1999.90;999.90;;;22.00;99.90;;;;;;6722619;88;20237;-77
2022/08/26 19:36:53;;;;;;;1999.90;999.90;;;22.00;99.90;;;;;;6720470;88;20291;-78
2022/08/26 19:46:53;;;;;;;1999.90;999.90;;;21.90;99.90;;;;;;6731394;88;20161;-79
2022/08/26 19:56:54;;;;;;;1999.90;999.90;;;21.80;99.90;;;;;;6720287;88;20621;-78
2022/08/26 20:06:55;;;;;;;1999.90;999.90;;;21.80;99.90;;;;;;6714917;88;20182;-77
2022/08/26 20:16:56;;;;;;;1999.90;999.90;;;21.70;99.90;;;;;;6712409;88;20946;-76
2022/08/26 20:26:57;;;;;;;1999.90;999.90;;;21.60;99.90;;;;;;6710559;88;20716;-75
2022/08/26 20:36:58;;;;;;;1999.90;999.90;;;21.60;99.90;;;;;;6708921;88;20252;-78
2022/08/26 20:46:59;;;;;;;1999.90;999.90;;;21.50;99.90;;;;;;6718497;88;20276;-76
2022/08/26 20:56:59;;;;;;;1999.90;999.90;;;21.40;99.90;;;;;;6715026;88;20215;-78
2022/08/26 21:07:00;;;;;;;1999.90;999.90;;;21.40;99.90;;;;;;6722635;88;20216;-76
2022/08/26 21:17:01;;;;;;;1999.90;999.90;;;21.20;99.90;;;;;;6719510;88;20202;-78
2022/08/26 21:27:01;;;;;;;1999.90;999.90;;;21.20;99.90;;;;;;6720194;88;20228;-76
2022/08/26 21:37:02;;;;;;;1999.90;999.90;;;21.20;99.90;;;;;;6717747;88;20229;-78
2022/08/26 21:47:03;;;;;;;1999.90;999.90;;;21.10;99.90;;;;;;6721213;88;20248;-77
2022/08/26 21:57:05;;;;;;;1999.90;999.90;;;21.20;99.90;;;;;;6725779;88;20198;-78
2022/08/26 22:18:08;;;;;;;1999.90;999.90;;;21.00;99.90;;;;;;6750029;88;20702;-79
2022/08/26 22:28:08;;;;;;;1999.90;999.90;;;21.10;99.90;;;;;;6741404;88;20205;-80
2022/08/26 22:38:09;;;;;;;1999.90;999.90;;;21.10;99.90;;;;;;6753606;88;20189;-80
2022/08/26 22:48:14;;;;;;;1999.90;999.90;;;21.00;99.90;;;;;;6749066;88;20173;-80
2022/08/26 22:58:16;;;;;;;1999.90;999.90;;;21.00;99.90;;;;;;6754770;88;20262;-79
2022/08/26 23:08:17;;;;;;;1999.90;999.90;;;20.90;99.90;;;;;;6755606;88;20362;-80
2022/08/26 23:18:17;;;;;;;1999.90;999.90;;;20.90;99.90;;;;;;6738517;88;20667;-80
2022/08/26 23:28:19;;;;;;;1999.90;999.90;;;20.80;99.90;;;;;;6754182;88;20202;-79
2022/08/26 23:38:19;;;;;;;1999.90;999.90;;;20.80;99.90;;;;;;6752900;88;20181;-80
2022/08/26 23:48:20;;;;;;;1999.90;999.90;;;20.60;99.90;;;;;;6751319;88;20197;-79
2022/08/26 23:58:21;;;;;;;1999.90;999.90;;;20.60;99.90;;;;;;6754502;88;20210;-80
